sensor_id;sensor_type;location;lat;lon;timestamp;pressure;altitude;pressure_sealevel;temperature;humidity
48404;BME280;34202;52.536;6.042;2023-03-19T00:00:55;101134.00;;;10.71;98.65
48404;BME280;34202;52.536;6.042;2023-03-19T00:05:56;101136.44;;;10.72;98.72
48404;BME280;34202;52.536;6.042;2023-03-19T00:10:56;101140.80;;;10.72;98.76
48404;BME280;34202;52.536;6.042;2023-03-19T00:15:56;101142.35;;;10.71;98.77
48404;BME280;34202;52.536;6.042;2023-03-19T00:20:57;101139.04;;;10.70;98.85
48404;BME280;34202;52.536;6.042;2023-03-19T00:25:57;101140.44;;;10.71;98.86
48404;BME280;34202;52.536;6.042;2023-03-19T00:31:09;101142.52;;;10.71;98.89
48404;BME280;34202;52.536;6.042;2023-03-19T00:36:10;101147.93;;;10.71;98.94
48404;BME280;34202;52.536;6.042;2023-03-19T00:41:11;101152.61;;;10.70;99.16
48404;BME280;34202;52.536;6.042;2023-03-19T00:46:12;101156.23;;;10.68;99.16
48404;BME280;34202;52.536;6.042;2023-03-19T00:51:13;101154.48;;;10.66;99.35
48404;BME280;34202;52.536;6.042;2023-03-19T00:56:17;101155.85;;;10.63;99.54
48404;BME280;34202;52.536;6.042;2023-03-19T01:01:18;101152.67;;;10.61;99.83
48404;BME280;34202;52.536;6.042;2023-03-19T01:06:18;101153.34;;;10.58;100.00
48404;BME280;34202;52.536;6.042;2023-03-19T01:11:19;101155.04;;;10.54;100.00
48404;BME280;34202;52.536;6.042;2023-03-19T01:16:19;101154.30;;;10.50;100.00
48404;BME280;34202;52.536;6.042;2023-03-19T01:21:20;101155.30;;;10.46;100.00
48404;BME280;34202;52.536;6.042;2023-03-19T01:26:21;101155.08;;;10.42;100.00
48404;BME280;34202;52.536;6.042;2023-03-19T01:31:21;101153.11;;;10.39;100.00
48404;BME280;34202;52.536;6.042;2023-03-19T01:36:21;101149.95;;;10.36;100.00
48404;BME280;34202;52.536;6.042;2023-03-19T01:41:23;101150.09;;;10.33;100.00
48404;BME280;34202;52.536;6.042;2023-03-19T01:46:30;101153.38;;;10.31;100.00
48404;BME280;34202;52.536;6.042;2023-03-19T01:51:35;101150.34;;;10.29;100.00
48404;BME280;34202;52.536;6.042;2023-03-19T01:56:38;101149.45;;;10.27;100.00
48404;BME280;34202;52.536;6.042;2023-03-19T02:01:48;101145.77;;;10.24;100.00
48404;BME280;34202;52.536;6.042;2023-03-19T02:06:50;101142.80;;;10.22;100.00
48404;BME280;34202;52.536;6.042;2023-03-19T02:11:51;101150.41;;;10.21;100.00
48404;BME280;34202;52.536;6.042;2023-03-19T02:16:53;101151.94;;;10.18;100.00
48404;BME280;34202;52.536;6.042;2023-03-19T02:21:54;101151.23;;;10.16;100.00
48404;BME280;34202;52.536;6.042;2023-03-19T02:26:56;101154.47;;;10.12;100.00
48404;BME280;34202;52.536;6.042;2023-03-19T02:31:57;101152.46;;;10.05;100.00
48404;BME280;34202;52.536;6.042;2023-03-19T02:36:59;101155.52;;;9.99;100.00
48404;BME280;34202;52.536;6.042;2023-03-19T02:42:03;101153.84;;;9.91;100.00
48404;BME280;34202;52.536;6.042;2023-03-19T02:47:05;101158.39;;;9.82;100.00
48404;BME280;34202;52.536;6.042;2023-03-19T02:52:06;101149.77;;;9.75;100.00
48404;BME280;34202;52.536;6.042;2023-03-19T02:57:07;101155.23;;;9.68;100.00
48404;BME280;34202;52.536;6.042;2023-03-19T03:02:07;101165.19;;;9.61;100.00
48404;BME280;34202;52.536;6.042;2023-03-19T03:07:09;101170.48;;;9.54;100.00
48404;BME280;34202;52.536;6.042;2023-03-19T03:12:09;101174.02;;;9.47;100.00
48404;BME280;34202;52.536;6.042;2023-03-19T03:17:10;101176.52;;;9.42;100.00
48404;BME280;34202;52.536;6.042;2023-03-19T03:22:10;101182.88;;;9.37;100.00
48404;BME280;34202;52.536;6.042;2023-03-19T03:27:11;101186.12;;;9.34;100.00
48404;BME280;34202;52.536;6.042;2023-03-19T03:32:11;101190.45;;;9.33;100.00
48404;BME280;34202;52.536;6.042;2023-03-19T03:37:12;101184.73;;;9.34;100.00
48404;BME280;34202;52.536;6.042;2023-03-19T03:42:12;101186.15;;;9.35;100.00
48404;BME280;34202;52.536;6.042;2023-03-19T03:47:13;101185.63;;;9.36;100.00
48404;BME280;34202;52.536;6.042;2023-03-19T03:52:13;101185.81;;;9.36;100.00
48404;BME280;34202;52.536;6.042;2023-03-19T03:57:14;101189.27;;;9.36;100.00
48404;BME280;34202;52.536;6.042;2023-03-19T04:02:14;101192.76;;;9.35;100.00
48404;BME280;34202;52.536;6.042;2023-03-19T04:07:15;101194.27;;;9.34;100.00
48404;BME280;34202;52.536;6.042;2023-03-19T04:12:15;101196.48;;;9.31;100.00
48404;BME280;34202;52.536;6.042;2023-03-19T04:17:16;101198.86;;;9.27;100.00
48404;BME280;34202;52.536;6.042;2023-03-19T04:22:17;101205.03;;;9.22;100.00
48404;BME280;34202;52.536;6.042;2023-03-19T04:27:18;101203.17;;;9.17;100.00
48404;BME280;34202;52.536;6.042;2023-03-19T04:32:18;101201.02;;;9.12;100.00
48404;BME280;34202;52.536;6.042;2023-03-19T04:37:18;101204.05;;;9.07;100.00
48404;BME280;34202;52.536;6.042;2023-03-19T04:42:19;101204.52;;;9.03;100.00
48404;BME280;34202;52.536;6.042;2023-03-19T04:47:20;101204.09;;;9.00;100.00
48404;BME280;34202;52.536;6.042;2023-03-19T04:52:21;101207.32;;;8.97;100.00
48404;BME280;34202;52.536;6.042;2023-03-19T04:57:21;101207.98;;;8.95;100.00
48404;BME280;34202;52.536;6.042;2023-03-19T05:02:21;101212.13;;;8.94;100.00
48404;BME280;34202;52.536;6.042;2023-03-19T05:07:22;101211.38;;;8.91;100.00
48404;BME280;34202;52.536;6.042;2023-03-19T05:12:22;101214.81;;;8.88;100.00
48404;BME280;34202;52.536;6.042;2023-03-19T05:17:23;101216.48;;;8.86;100.00
48404;BME280;34202;52.536;6.042;2023-03-19T05:22:24;101217.45;;;8.81;100.00
48404;BME280;34202;52.536;6.042;2023-03-19T05:27:25;101223.77;;;8.77;100.00
48404;BME280;34202;52.536;6.042;2023-03-19T05:32:27;101226.63;;;8.73;100.00
48404;BME280;34202;52.536;6.042;2023-03-19T05:37:27;101233.33;;;8.68;100.00
48404;BME280;34202;52.536;6.042;2023-03-19T05:42:28;101236.54;;;8.64;100.00
48404;BME280;34202;52.536;6.042;2023-03-19T05:47:28;101240.97;;;8.61;100.00
48404;BME280;34202;52.536;6.042;2023-03-19T05:52:29;101245.56;;;8.56;100.00
48404;BME280;34202;52.536;6.042;2023-03-19T05:57:29;101252.75;;;8.52;100.00
48404;BME280;34202;52.536;6.042;2023-03-19T06:02:30;101258.00;;;8.46;100.00
48404;BME280;34202;52.536;6.042;2023-03-19T06:07:30;101262.38;;;8.41;100.00
48404;BME280;34202;52.536;6.042;2023-03-19T06:12:31;101260.69;;;8.36;100.00
48404;BME280;34202;52.536;6.042;2023-03-19T06:17:31;101266.87;;;8.33;100.00
48404;BME280;34202;52.536;6.042;2023-03-19T06:22:31;101275.51;;;8.31;100.00
48404;BME280;34202;52.536;6.042;2023-03-19T06:27:32;101281.89;;;8.30;100.00
48404;BME280;34202;52.536;6.042;2023-03-19T06:32:32;101284.30;;;8.28;100.00
48404;BME280;34202;52.536;6.042;2023-03-19T06:37:32;101289.96;;;8.26;100.00
48404;BME280;34202;52.536;6.042;2023-03-19T06:42:33;101294.92;;;8.24;100.00
48404;BME280;34202;52.536;6.042;2023-03-19T06:47:33;101302.52;;;8.22;100.00
48404;BME280;34202;52.536;6.042;2023-03-19T06:52:34;101309.11;;;8.22;100.00
48404;BME280;34202;52.536;6.042;2023-03-19T06:57:34;101312.92;;;8.22;100.00
48404;BME280;34202;52.536;6.042;2023-03-19T07:02:35;101316.11;;;8.25;100.00
48404;BME280;34202;52.536;6.042;2023-03-19T07:07:36;101317.23;;;8.28;100.00
48404;BME280;34202;52.536;6.042;2023-03-19T07:12:36;101322.25;;;8.35;100.00
48404;BME280;34202;52.536;6.042;2023-03-19T07:17:36;101327.88;;;8.45;100.00
48404;BME280;34202;52.536;6.042;2023-03-19T07:22:37;101334.08;;;8.58;100.00
48404;BME280;34202;52.536;6.042;2023-03-19T07:27:37;101335.56;;;8.70;100.00
48404;BME280;34202;52.536;6.042;2023-03-19T07:32:38;101340.02;;;8.84;100.00
48404;BME280;34202;52.536;6.042;2023-03-19T07:37:38;101343.77;;;8.96;100.00
48404;BME280;34202;52.536;6.042;2023-03-19T07:42:39;101343.63;;;9.06;100.00
48404;BME280;34202;52.536;6.042;2023-03-19T07:47:40;101355.48;;;9.17;100.00
48404;BME280;34202;52.536;6.042;2023-03-19T07:52:40;101359.99;;;9.25;100.00
48404;BME280;34202;52.536;6.042;2023-03-19T07:57:41;101365.75;;;9.35;100.00
48404;BME280;34202;52.536;6.042;2023-03-19T08:02:41;101374.30;;;9.45;100.00
48404;BME280;34202;52.536;6.042;2023-03-19T08:07:41;101375.55;;;9.56;100.00
48404;BME280;34202;52.536;6.042;2023-03-19T08:12:42;101382.67;;;9.65;100.00
48404;BME280;34202;52.536;6.042;2023-03-19T08:17:43;101381.15;;;9.77;100.00
48404;BME280;34202;52.536;6.042;2023-03-19T08:22:48;101388.52;;;9.90;100.00
48404;BME280;34202;52.536;6.042;2023-03-19T08:27:48;101396.25;;;10.04;100.00
48404;BME280;34202;52.536;6.042;2023-03-19T08:32:49;101398.78;;;10.19;100.00
48404;BME280;34202;52.536;6.042;2023-03-19T08:37:50;101400.29;;;10.35;100.00
48404;BME280;34202;52.536;6.042;2023-03-19T08:42:50;101402.62;;;10.50;100.00
48404;BME280;34202;52.536;6.042;2023-03-19T08:47:51;101404.90;;;10.61;100.00
48404;BME280;34202;52.536;6.042;2023-03-19T08:52:52;101413.90;;;10.69;100.00
48404;BME280;34202;52.536;6.042;2023-03-19T08:57:52;101426.35;;;10.76;100.00
48404;BME280;34202;52.536;6.042;2023-03-19T09:02:52;101436.73;;;10.83;100.00
48404;BME280;34202;52.536;6.042;2023-03-19T09:07:53;101443.97;;;10.89;100.00
48404;BME280;34202;52.536;6.042;2023-03-19T09:12:53;101448.23;;;10.96;100.00
48404;BME280;34202;52.536;6.042;2023-03-19T09:17:53;101451.96;;;11.00;100.00
48404;BME280;34202;52.536;6.042;2023-03-19T09:22:54;101458.51;;;11.06;100.00
48404;BME280;34202;52.536;6.042;2023-03-19T09:27:55;101459.29;;;11.12;100.00
48404;BME280;34202;52.536;6.042;2023-03-19T09:32:55;101465.44;;;11.16;100.00
48404;BME280;34202;52.536;6.042;2023-03-19T09:37:57;101472.32;;;11.22;100.00
48404;BME280;34202;52.536;6.042;2023-03-19T09:43:01;101474.33;;;11.29;100.00
48404;BME280;34202;52.536;6.042;2023-03-19T09:48:13;101481.41;;;11.38;100.00
48404;BME280;34202;52.536;6.042;2023-03-19T09:53:48;101483.00;;;11.51;100.00
48404;BME280;34202;52.536;6.042;2023-03-19T09:58:52;101481.63;;;11.67;100.00
48404;BME280;34202;52.536;6.042;2023-03-19T10:04:20;101483.73;;;11.82;100.00
48404;BME280;34202;52.536;6.042;2023-03-19T10:14:59;101497.29;;;12.21;100.00
48404;BME280;34202;52.536;6.042;2023-03-19T10:20:08;101498.52;;;12.40;100.00
48404;BME280;34202;52.536;6.042;2023-03-19T10:25:15;101503.39;;;12.57;100.00
48404;BME280;34202;52.536;6.042;2023-03-19T10:30:18;101500.92;;;12.74;100.00
48404;BME280;34202;52.536;6.042;2023-03-19T10:35:30;101506.10;;;12.89;100.00
48404;BME280;34202;52.536;6.042;2023-03-19T10:40:46;101507.75;;;13.01;100.00
48404;BME280;34202;52.536;6.042;2023-03-19T10:45:48;101508.54;;;13.12;100.00
48404;BME280;34202;52.536;6.042;2023-03-19T10:55:53;101511.87;;;13.37;100.00
48404;BME280;34202;52.536;6.042;2023-03-19T11:06:14;101509.92;;;13.64;100.00
48404;BME280;34202;52.536;6.042;2023-03-19T11:11:35;101505.25;;;13.76;100.00
48404;BME280;34202;52.536;6.042;2023-03-19T11:16:50;101504.27;;;13.89;100.00
48404;BME280;34202;52.536;6.042;2023-03-19T11:22:15;101510.44;;;14.05;100.00
48404;BME280;34202;52.536;6.042;2023-03-19T11:27:17;101513.82;;;14.25;100.00
48404;BME280;34202;52.536;6.042;2023-03-19T11:53:56;101509.85;;;15.11;97.75
48404;BME280;34202;52.536;6.042;2023-03-19T12:04:42;101515.43;;;15.33;95.95
48404;BME280;34202;52.536;6.042;2023-03-19T12:26:14;101528.90;;;15.48;93.70
48404;BME280;34202;52.536;6.042;2023-03-19T12:36:56;101538.89;;;15.54;92.27
48404;BME280;34202;52.536;6.042;2023-03-19T12:41:58;101539.94;;;15.52;91.51
48404;BME280;34202;52.536;6.042;2023-03-19T12:47:04;101536.63;;;15.46;90.90
48404;BME280;34202;52.536;6.042;2023-03-19T12:52:20;101536.80;;;15.46;91.00
48404;BME280;34202;52.536;6.042;2023-03-19T12:57:26;101536.61;;;15.47;91.24
48404;BME280;34202;52.536;6.042;2023-03-19T13:02:35;101538.73;;;15.49;91.00
48404;BME280;34202;52.536;6.042;2023-03-19T13:12:45;101555.37;;;15.56;90.56
48404;BME280;34202;52.536;6.042;2023-03-19T13:17:56;101562.19;;;15.62;90.87
48404;BME280;34202;52.536;6.042;2023-03-19T13:23:03;101567.27;;;15.74;90.75
48404;BME280;34202;52.536;6.042;2023-03-19T13:28:09;101565.52;;;15.72;88.96
48404;BME280;34202;52.536;6.042;2023-03-19T13:33:15;101565.36;;;15.60;87.88
48404;BME280;34202;52.536;6.042;2023-03-19T13:38:21;101566.23;;;15.59;88.68
48404;BME280;34202;52.536;6.042;2023-03-19T13:58:29;101578.63;;;15.92;88.90
48404;BME280;34202;52.536;6.042;2023-03-19T14:09:02;101582.70;;;15.82;87.37
48404;BME280;34202;52.536;6.042;2023-03-19T14:14:05;101586.05;;;15.73;87.23
48404;BME280;34202;52.536;6.042;2023-03-19T14:19:11;101580.95;;;15.70;87.19
48404;BME280;34202;52.536;6.042;2023-03-19T14:24:33;101583.77;;;15.62;86.90
48404;BME280;34202;52.536;6.042;2023-03-19T14:29:35;101583.27;;;15.52;86.55
48404;BME280;34202;52.536;6.042;2023-03-19T14:34:40;101591.72;;;15.36;85.92
48404;BME280;34202;52.536;6.042;2023-03-19T14:39:44;101595.41;;;15.14;85.33
48404;BME280;34202;52.536;6.042;2023-03-19T14:55:13;101631.71;;;14.42;85.38
48404;BME280;34202;52.536;6.042;2023-03-19T15:00:17;101638.27;;;14.21;85.84
48404;BME280;34202;52.536;6.042;2023-03-19T15:05:28;101636.63;;;14.05;86.32
48404;BME280;34202;52.536;6.042;2023-03-19T15:10:35;101629.92;;;13.93;86.81
48404;BME280;34202;52.536;6.042;2023-03-19T15:15:55;101636.84;;;13.82;86.98
48404;BME280;34202;52.536;6.042;2023-03-19T15:20:57;101644.46;;;13.69;87.20
48404;BME280;34202;52.536;6.042;2023-03-19T15:26:00;101634.25;;;13.59;87.78
48404;BME280;34202;52.536;6.042;2023-03-19T15:31:04;101627.04;;;13.53;88.36
48404;BME280;34202;52.536;6.042;2023-03-19T15:41:16;101616.48;;;13.46;89.02
48404;BME280;34202;52.536;6.042;2023-03-19T15:46:21;101624.14;;;13.40;89.20
48404;BME280;34202;52.536;6.042;2023-03-19T15:51:25;101638.73;;;13.31;89.06
48404;BME280;34202;52.536;6.042;2023-03-19T15:56:26;101644.42;;;13.22;88.89
48404;BME280;34202;52.536;6.042;2023-03-19T16:01:27;101654.60;;;13.08;88.56
48404;BME280;34202;52.536;6.042;2023-03-19T16:06:30;101656.40;;;12.95;89.05
48404;BME280;34202;52.536;6.042;2023-03-19T16:11:37;101659.47;;;12.87;89.46
48404;BME280;34202;52.536;6.042;2023-03-19T16:16:40;101662.71;;;12.81;89.69
48404;BME280;34202;52.536;6.042;2023-03-19T16:21:42;101666.98;;;12.71;89.73
48404;BME280;34202;52.536;6.042;2023-03-19T16:26:43;101675.27;;;12.62;89.89
48404;BME280;34202;52.536;6.042;2023-03-19T16:31:50;101674.63;;;12.52;90.20
48404;BME280;34202;52.536;6.042;2023-03-19T16:36:52;101680.83;;;12.46;90.43
48404;BME280;34202;52.536;6.042;2023-03-19T16:42:14;101681.11;;;12.41;90.55
48404;BME280;34202;52.536;6.042;2023-03-19T16:47:15;101686.44;;;12.33;90.38
48404;BME280;34202;52.536;6.042;2023-03-19T16:52:19;101688.38;;;12.22;90.19
48404;BME280;34202;52.536;6.042;2023-03-19T16:57:20;101695.21;;;12.11;90.44
48404;BME280;34202;52.536;6.042;2023-03-19T17:02:20;101698.11;;;12.07;90.82
48404;BME280;34202;52.536;6.042;2023-03-19T17:07:21;101705.06;;;12.05;91.14
48404;BME280;34202;52.536;6.042;2023-03-19T17:12:21;101707.96;;;12.01;91.10
48404;BME280;34202;52.536;6.042;2023-03-19T17:17:22;101714.33;;;11.94;91.04
48404;BME280;34202;52.536;6.042;2023-03-19T17:22:22;101730.55;;;11.85;91.10
48404;BME280;34202;52.536;6.042;2023-03-19T17:27:26;101744.52;;;11.74;90.96
48404;BME280;34202;52.536;6.042;2023-03-19T17:32:27;101754.05;;;11.61;91.06
48404;BME280;34202;52.536;6.042;2023-03-19T17:37:28;101765.73;;;11.52;91.88
48404;BME280;34202;52.536;6.042;2023-03-19T17:42:30;101768.58;;;11.44;92.72
48404;BME280;34202;52.536;6.042;2023-03-19T17:47:32;101774.96;;;11.31;93.02
48404;BME280;34202;52.536;6.042;2023-03-19T17:52:34;101786.94;;;11.19;93.65
48404;BME280;34202;52.536;6.042;2023-03-19T17:57:35;101789.77;;;11.13;94.31
48404;BME280;34202;52.536;6.042;2023-03-19T18:02:35;101795.71;;;11.04;94.74
48404;BME280;34202;52.536;6.042;2023-03-19T18:07:36;101796.86;;;10.93;95.30
48404;BME280;34202;52.536;6.042;2023-03-19T18:12:36;101793.05;;;10.86;95.84
48404;BME280;34202;52.536;6.042;2023-03-19T18:17:39;101800.20;;;10.77;96.12
48404;BME280;34202;52.536;6.042;2023-03-19T18:22:40;101806.45;;;10.69;96.37
48404;BME280;34202;52.536;6.042;2023-03-19T18:27:41;101815.00;;;10.61;96.70
48404;BME280;34202;52.536;6.042;2023-03-19T18:32:44;101817.70;;;10.57;97.23
48404;BME280;34202;52.536;6.042;2023-03-19T18:37:48;101821.78;;;10.53;97.43
48404;BME280;34202;52.536;6.042;2023-03-19T18:42:49;101827.59;;;10.49;97.66
48404;BME280;34202;52.536;6.042;2023-03-19T18:47:50;101828.77;;;10.47;98.04
48404;BME280;34202;52.536;6.042;2023-03-19T18:52:52;101832.23;;;10.45;98.30
48404;BME280;34202;52.536;6.042;2023-03-19T18:57:56;101834.77;;;10.42;98.36
48404;BME280;34202;52.536;6.042;2023-03-19T19:02:59;101839.90;;;10.39;98.56
48404;BME280;34202;52.536;6.042;2023-03-19T19:08:01;101845.92;;;10.36;98.60
48404;BME280;34202;52.536;6.042;2023-03-19T19:13:02;101851.39;;;10.32;98.79
48404;BME280;34202;52.536;6.042;2023-03-19T19:18:21;101857.67;;;10.26;98.98
48404;BME280;34202;52.536;6.042;2023-03-19T19:23:22;101861.85;;;10.20;99.28
48404;BME280;34202;52.536;6.042;2023-03-19T19:28:34;101863.32;;;10.15;99.54
48404;BME280;34202;52.536;6.042;2023-03-19T19:33:36;101870.30;;;10.10;99.58
48404;BME280;34202;52.536;6.042;2023-03-19T19:38:36;101872.29;;;10.05;99.79
48404;BME280;34202;52.536;6.042;2023-03-19T19:43:38;101872.33;;;10.00;99.78
48404;BME280;34202;52.536;6.042;2023-03-19T19:48:39;101880.21;;;9.96;99.97
48404;BME280;34202;52.536;6.042;2023-03-19T19:53:40;101882.21;;;9.92;100.00
48404;BME280;34202;52.536;6.042;2023-03-19T19:58:41;101876.42;;;9.90;100.00
48404;BME280;34202;52.536;6.042;2023-03-19T20:03:44;101877.23;;;9.89;100.00
48404;BME280;34202;52.536;6.042;2023-03-19T20:08:45;101876.69;;;9.87;100.00
48404;BME280;34202;52.536;6.042;2023-03-19T20:13:50;101880.66;;;9.86;100.00
48404;BME280;34202;52.536;6.042;2023-03-19T20:18:53;101884.60;;;9.84;100.00
48404;BME280;34202;52.536;6.042;2023-03-19T20:23:54;101894.47;;;9.82;100.00
48404;BME280;34202;52.536;6.042;2023-03-19T20:28:55;101902.08;;;9.80;100.00
48404;BME280;34202;52.536;6.042;2023-03-19T20:33:56;101898.52;;;9.78;100.00
48404;BME280;34202;52.536;6.042;2023-03-19T20:38:56;101910.98;;;9.75;100.00
48404;BME280;34202;52.536;6.042;2023-03-19T20:43:59;101910.77;;;9.74;100.00
48404;BME280;34202;52.536;6.042;2023-03-19T20:49:02;101907.45;;;9.73;100.00
48404;BME280;34202;52.536;6.042;2023-03-19T20:54:02;101914.02;;;9.73;100.00
48404;BME280;34202;52.536;6.042;2023-03-19T20:59:04;101922.11;;;9.69;100.00
48404;BME280;34202;52.536;6.042;2023-03-19T21:04:07;101930.10;;;9.63;100.00
48404;BME280;34202;52.536;6.042;2023-03-19T21:09:10;101938.51;;;9.59;100.00
48404;BME280;34202;52.536;6.042;2023-03-19T21:14:14;101934.04;;;9.55;100.00
48404;BME280;34202;52.536;6.042;2023-03-19T21:19:17;101934.48;;;9.52;100.00
48404;BME280;34202;52.536;6.042;2023-03-19T21:24:18;101933.19;;;9.49;100.00
48404;BME280;34202;52.536;6.042;2023-03-19T21:29:28;101934.45;;;9.45;100.00
48404;BME280;34202;52.536;6.042;2023-03-19T21:34:31;101935.56;;;9.41;100.00
48404;BME280;34202;52.536;6.042;2023-03-19T21:39:32;101937.52;;;9.37;100.00
48404;BME280;34202;52.536;6.042;2023-03-19T21:44:33;101938.09;;;9.33;100.00
48404;BME280;34202;52.536;6.042;2023-03-19T21:49:33;101939.16;;;9.27;100.00
48404;BME280;34202;52.536;6.042;2023-03-19T21:54:33;101940.33;;;9.20;100.00
48404;BME280;34202;52.536;6.042;2023-03-19T21:59:34;101946.88;;;9.13;100.00
48404;BME280;34202;52.536;6.042;2023-03-19T22:04:35;101957.32;;;9.07;100.00
48404;BME280;34202;52.536;6.042;2023-03-19T22:09:35;101954.40;;;9.03;100.00
48404;BME280;34202;52.536;6.042;2023-03-19T22:14:36;101952.63;;;8.96;100.00
48404;BME280;34202;52.536;6.042;2023-03-19T22:19:37;101954.77;;;8.92;100.00
48404;BME280;34202;52.536;6.042;2023-03-19T22:24:37;101953.60;;;8.88;100.00
48404;BME280;34202;52.536;6.042;2023-03-19T22:29:38;101966.00;;;8.85;100.00
48404;BME280;34202;52.536;6.042;2023-03-19T22:34:40;101973.86;;;8.81;100.00
48404;BME280;34202;52.536;6.042;2023-03-19T22:39:40;101978.13;;;8.79;100.00
48404;BME280;34202;52.536;6.042;2023-03-19T22:44:40;101975.80;;;8.77;100.00
48404;BME280;34202;52.536;6.042;2023-03-19T22:49:41;101977.96;;;8.74;100.00
48404;BME280;34202;52.536;6.042;2023-03-19T22:54:44;101983.08;;;8.71;100.00
48404;BME280;34202;52.536;6.042;2023-03-19T22:59:44;101988.05;;;8.69;100.00
48404;BME280;34202;52.536;6.042;2023-03-19T23:04:44;101985.36;;;8.67;100.00
48404;BME280;34202;52.536;6.042;2023-03-19T23:09:45;101979.05;;;8.64;100.00
48404;BME280;34202;52.536;6.042;2023-03-19T23:14:45;101974.61;;;8.61;100.00
48404;BME280;34202;52.536;6.042;2023-03-19T23:19:45;101972.96;;;8.59;100.00
48404;BME280;34202;52.536;6.042;2023-03-19T23:24:46;101967.52;;;8.57;100.00
48404;BME280;34202;52.536;6.042;2023-03-19T23:29:47;101977.70;;;8.55;100.00
48404;BME280;34202;52.536;6.042;2023-03-19T23:34:47;101987.16;;;8.53;100.00
48404;BME280;34202;52.536;6.042;2023-03-19T23:39:47;101980.16;;;8.51;100.00
48404;BME280;34202;52.536;6.042;2023-03-19T23:44:48;101972.94;;;8.48;100.00
48404;BME280;34202;52.536;6.042;2023-03-19T23:49:49;101968.73;;;8.46;100.00
48404;BME280;34202;52.536;6.042;2023-03-19T23:54:49;101979.08;;;8.44;100.00
48404;BME280;34202;52.536;6.042;2023-03-19T23:59:51;101971.34;;;8.42;100.00
